Aviation Digital Data Service (ADDS)

Output produced by TAFs form (1636 UTC 23 November 2017)
found at http://www.aviationweather.gov/adds/tafs/
 
METAR text: VVNB 231600Z 02009KT CAVOK 15/06 Q1025 NOSIG
Conditions at: VVNB (HANOI/NOIBAI INT, VN) observed 1600 UTC 23 November 2017
Temperature: 15.0°C (59°F)
Dewpoint: 6.0°C (43°F) [RH = 55%]
Pressure (altimeter): 30.27 inches Hg (1025.0 mb)
Winds: from the NNE (20 degrees) at 10 MPH (9 knots; 4.7 m/s)
Visibility: 6 or more miles (10+ km)
Ceiling: ceiling and visibility are OK
Clouds: unknown
Weather: no significant weather observed at this time

Forecast for: VVNB (HANOI/NOIBAI INT, VN)
Text: TAF VVNB 231100Z 2312/2412 02012KT 9000 FEW020 BKN050
Forecast period: 1200 UTC 23 November 2017 to 1200 UTC 24 November 2017
Forecast type: FROM: standard forecast or significant change
Winds: from the NNE (20 degrees) at 14 MPH (12 knots; 6.2 m/s)
Visibility: 6 miles (9 km)
Ceiling: 5000 feet AGL
Clouds: few clouds at 2000 feet AGL
broken clouds at 5000 feet AGL
Weather: no significant weather forecast for this period